Norfolk, Virginia
Traffic Map
Current Weather Conditions
Norfolk, Virginia
Clear
Clear
81°
Feels Like: 85°
Wind Chill: 81° Ceiling: Unl
Heat Index: 85° Visibility: 9mi
Dew Point: 71° Wind: 13mph
Humidity: 72% Direction: 360° (N)
Pressure: 29.96in Gusts: 0mph
Raw Report DataKORF 281451Z AUTO 36011KT 9SM CLR 27/22 A2996 RMK AO2 SLP144 T02720217 51012 TSNO
Traffic Incident Summary
Active as of:
Severity:
Category:
InformationThere was an issue retrieving the traffic information for this location. Please try a different location or try again shortly.
Advertisements
Track Severe Weather on mobile